sensor_id;sensor_type;location;lat;lon;timestamp;P1;durP1;ratioP1;P2;durP2;ratioP2
6424;SDS011;12193;42.642;23.384;2023-07-02T00:01:13;9.47;;;5.43;;
6424;SDS011;12193;42.642;23.384;2023-07-02T00:03:42;9.93;;;5.30;;
6424;SDS011;12193;42.642;23.384;2023-07-02T00:06:12;9.13;;;5.03;;
6424;SDS011;12193;42.642;23.384;2023-07-02T03:08:27;13.57;;;7.33;;
6424;SDS011;12193;42.642;23.384;2023-07-02T03:10:57;14.00;;;7.63;;
6424;SDS011;12193;42.642;23.384;2023-07-02T03:13:27;13.83;;;7.40;;
6424;SDS011;12193;42.642;23.384;2023-07-02T03:15:56;10.63;;;6.97;;
6424;SDS011;12193;42.642;23.384;2023-07-02T03:18:26;13.37;;;7.30;;
6424;SDS011;12193;42.642;23.384;2023-07-02T03:20:55;13.67;;;7.10;;
6424;SDS011;12193;42.642;23.384;2023-07-02T03:23:27;12.97;;;7.10;;
6424;SDS011;12193;42.642;23.384;2023-07-02T03:25:56;11.80;;;7.30;;
6424;SDS011;12193;42.642;23.384;2023-07-02T03:28:26;14.83;;;7.10;;
6424;SDS011;12193;42.642;23.384;2023-07-02T03:30:55;14.00;;;7.30;;
6424;SDS011;12193;42.642;23.384;2023-07-02T03:33:25;13.50;;;7.30;;
6424;SDS011;12193;42.642;23.384;2023-07-02T03:35:54;12.17;;;7.27;;
6424;SDS011;12193;42.642;23.384;2023-07-02T03:38:23;13.17;;;6.87;;
6424;SDS011;12193;42.642;23.384;2023-07-02T03:40:56;13.30;;;7.33;;
6424;SDS011;12193;42.642;23.384;2023-07-02T03:43:25;11.97;;;7.30;;
6424;SDS011;12193;42.642;23.384;2023-07-02T03:45:54;15.03;;;8.03;;
6424;SDS011;12193;42.642;23.384;2023-07-02T03:48:23;11.70;;;7.10;;
6424;SDS011;12193;42.642;23.384;2023-07-02T03:50:53;14.07;;;7.37;;
6424;SDS011;12193;42.642;23.384;2023-07-02T03:53:22;16.37;;;7.83;;
6424;SDS011;12193;42.642;23.384;2023-07-02T03:55:54;13.47;;;6.87;;
6424;SDS011;12193;42.642;23.384;2023-07-02T03:58:24;15.60;;;7.93;;
6424;SDS011;12193;42.642;23.384;2023-07-02T04:00:53;14.93;;;7.43;;
6424;SDS011;12193;42.642;23.384;2023-07-02T04:03:22;14.43;;;7.47;;
6424;SDS011;12193;42.642;23.384;2023-07-02T04:05:51;15.07;;;7.57;;
6424;SDS011;12193;42.642;23.384;2023-07-02T04:08:21;13.63;;;7.80;;
6424;SDS011;12193;42.642;23.384;2023-07-02T04:10:50;13.77;;;7.87;;
6424;SDS011;12193;42.642;23.384;2023-07-02T04:13:23;14.53;;;8.20;;
6424;SDS011;12193;42.642;23.384;2023-07-02T04:15:52;17.27;;;8.20;;
6424;SDS011;12193;42.642;23.384;2023-07-02T04:18:21;15.13;;;7.87;;
6424;SDS011;12193;42.642;23.384;2023-07-02T04:20:51;17.00;;;8.23;;
6424;SDS011;12193;42.642;23.384;2023-07-02T04:23:22;15.93;;;8.60;;
6424;SDS011;12193;42.642;23.384;2023-07-02T04:25:51;13.13;;;7.67;;
6424;SDS011;12193;42.642;23.384;2023-07-02T04:28:23;15.43;;;8.13;;
6424;SDS011;12193;42.642;23.384;2023-07-02T04:30:53;12.47;;;7.20;;
6424;SDS011;12193;42.642;23.384;2023-07-02T04:33:22;15.40;;;7.73;;
6424;SDS011;12193;42.642;23.384;2023-07-02T04:35:52;11.63;;;7.17;;
6424;SDS011;12193;42.642;23.384;2023-07-02T04:38:23;15.37;;;7.60;;
6424;SDS011;12193;42.642;23.384;2023-07-02T04:40:52;12.13;;;7.27;;
6424;SDS011;12193;42.642;23.384;2023-07-02T04:43:26;14.40;;;7.43;;
6424;SDS011;12193;42.642;23.384;2023-07-02T04:45:57;14.77;;;8.23;;
6424;SDS011;12193;42.642;23.384;2023-07-02T04:48:26;13.37;;;8.17;;
6424;SDS011;12193;42.642;23.384;2023-07-02T04:50:55;17.13;;;7.33;;
6424;SDS011;12193;42.642;23.384;2023-07-02T04:53:25;11.77;;;7.57;;
6424;SDS011;12193;42.642;23.384;2023-07-02T04:55:54;16.27;;;8.10;;
6424;SDS011;12193;42.642;23.384;2023-07-02T04:58:26;15.57;;;8.30;;
6424;SDS011;12193;42.642;23.384;2023-07-02T05:00:56;15.03;;;7.67;;
6424;SDS011;12193;42.642;23.384;2023-07-02T05:03:25;16.13;;;8.03;;
6424;SDS011;12193;42.642;23.384;2023-07-02T05:05:55;15.00;;;8.17;;
6424;SDS011;12193;42.642;23.384;2023-07-02T05:08:24;14.90;;;7.87;;
6424;SDS011;12193;42.642;23.384;2023-07-02T05:10:54;15.13;;;7.97;;
6424;SDS011;12193;42.642;23.384;2023-07-02T05:13:26;13.67;;;7.93;;
6424;SDS011;12193;42.642;23.384;2023-07-02T05:15:55;11.30;;;7.40;;
6424;SDS011;12193;42.642;23.384;2023-07-02T05:18:25;13.10;;;7.33;;
6424;SDS011;12193;42.642;23.384;2023-07-02T05:20:54;13.90;;;7.10;;
6424;SDS011;12193;42.642;23.384;2023-07-02T05:23:23;13.17;;;6.67;;
6424;SDS011;12193;42.642;23.384;2023-07-02T05:25:53;14.13;;;7.93;;
6424;SDS011;12193;42.642;23.384;2023-07-02T05:28:22;16.10;;;8.10;;
6424;SDS011;12193;42.642;23.384;2023-07-02T05:30:55;13.90;;;7.83;;
6424;SDS011;12193;42.642;23.384;2023-07-02T05:33:24;12.53;;;7.53;;
6424;SDS011;12193;42.642;23.384;2023-07-02T05:35:53;15.37;;;7.63;;
6424;SDS011;12193;42.642;23.384;2023-07-02T05:38:23;15.63;;;8.67;;
6424;SDS011;12193;42.642;23.384;2023-07-02T05:40:52;15.33;;;8.23;;
6424;SDS011;12193;42.642;23.384;2023-07-02T05:43:23;13.57;;;7.97;;
6424;SDS011;12193;42.642;23.384;2023-07-02T05:45:52;16.10;;;8.20;;
6424;SDS011;12193;42.642;23.384;2023-07-02T05:48:26;13.27;;;7.80;;
6424;SDS011;12193;42.642;23.384;2023-07-02T05:50:55;17.70;;;8.47;;
6424;SDS011;12193;42.642;23.384;2023-07-02T05:53:25;13.73;;;7.80;;
6424;SDS011;12193;42.642;23.384;2023-07-02T05:55:55;14.57;;;8.27;;
6424;SDS011;12193;42.642;23.384;2023-07-02T05:58:24;13.57;;;7.77;;
6424;SDS011;12193;42.642;23.384;2023-07-02T06:00:56;18.17;;;9.03;;
6424;SDS011;12193;42.642;23.384;2023-07-02T06:03:25;16.60;;;8.40;;
6424;SDS011;12193;42.642;23.384;2023-07-02T06:05:54;16.73;;;7.77;;
6424;SDS011;12193;42.642;23.384;2023-07-02T06:08:23;13.67;;;7.80;;
6424;SDS011;12193;42.642;23.384;2023-07-02T06:10:53;12.43;;;8.10;;
6424;SDS011;12193;42.642;23.384;2023-07-02T06:13:23;12.97;;;7.60;;
6424;SDS011;12193;42.642;23.384;2023-07-02T06:15:52;11.60;;;7.07;;
6424;SDS011;12193;42.642;23.384;2023-07-02T06:18:24;12.07;;;7.57;;
6424;SDS011;12193;42.642;23.384;2023-07-02T06:20:53;11.00;;;6.90;;
6424;SDS011;12193;42.642;23.384;2023-07-02T06:23:22;17.30;;;8.10;;
6424;SDS011;12193;42.642;23.384;2023-07-02T06:25:52;13.27;;;6.47;;
6424;SDS011;12193;42.642;23.384;2023-07-02T06:28:25;11.50;;;6.83;;
6424;SDS011;12193;42.642;23.384;2023-07-02T06:30:54;13.97;;;6.73;;
6424;SDS011;12193;42.642;23.384;2023-07-02T06:33:26;10.73;;;6.20;;
6424;SDS011;12193;42.642;23.384;2023-07-02T06:35:55;11.80;;;7.40;;
6424;SDS011;12193;42.642;23.384;2023-07-02T06:38:24;15.73;;;7.43;;
6424;SDS011;12193;42.642;23.384;2023-07-02T06:40:54;15.67;;;7.20;;
6424;SDS011;12193;42.642;23.384;2023-07-02T06:43:23;11.70;;;6.63;;
6424;SDS011;12193;42.642;23.384;2023-07-02T06:45:52;13.40;;;6.73;;
6424;SDS011;12193;42.642;23.384;2023-07-02T06:48:21;11.73;;;7.00;;
6424;SDS011;12193;42.642;23.384;2023-07-02T06:50:55;13.27;;;6.93;;
6424;SDS011;12193;42.642;23.384;2023-07-02T06:53:25;12.63;;;7.07;;
6424;SDS011;12193;42.642;23.384;2023-07-02T06:55:54;14.50;;;6.80;;
6424;SDS011;12193;42.642;23.384;2023-07-02T06:58:23;9.17;;;6.43;;
6424;SDS011;12193;42.642;23.384;2023-07-02T07:00:53;12.63;;;6.80;;
6424;SDS011;12193;42.642;23.384;2023-07-02T07:03:22;15.43;;;7.00;;
6424;SDS011;12193;42.642;23.384;2023-07-02T07:05:55;13.03;;;7.07;;
6424;SDS011;12193;42.642;23.384;2023-07-02T07:08:25;16.77;;;7.00;;
6424;SDS011;12193;42.642;23.384;2023-07-02T07:10:54;13.70;;;7.17;;
6424;SDS011;12193;42.642;23.384;2023-07-02T07:13:23;16.90;;;7.90;;
6424;SDS011;12193;42.642;23.384;2023-07-02T07:15:53;14.33;;;7.50;;
6424;SDS011;12193;42.642;23.384;2023-07-02T07:18:22;13.13;;;7.17;;
6424;SDS011;12193;42.642;23.384;2023-07-02T07:20:54;12.17;;;7.50;;
6424;SDS011;12193;42.642;23.384;2023-07-02T07:23:24;13.97;;;7.10;;
6424;SDS011;12193;42.642;23.384;2023-07-02T07:25:53;13.77;;;7.43;;
6424;SDS011;12193;42.642;23.384;2023-07-02T07:28:22;11.03;;;6.97;;
6424;SDS011;12193;42.642;23.384;2023-07-02T07:30:52;12.17;;;7.33;;
6424;SDS011;12193;42.642;23.384;2023-07-02T07:33:21;16.23;;;8.00;;
6424;SDS011;12193;42.642;23.384;2023-07-02T07:35:50;14.63;;;7.93;;
6424;SDS011;12193;42.642;23.384;2023-07-02T07:38:22;16.53;;;8.20;;
6424;SDS011;12193;42.642;23.384;2023-07-02T07:40:52;14.50;;;7.83;;
6424;SDS011;12193;42.642;23.384;2023-07-02T07:43:21;11.77;;;7.00;;
6424;SDS011;12193;42.642;23.384;2023-07-02T07:45:50;16.80;;;7.20;;
6424;SDS011;12193;42.642;23.384;2023-07-02T07:48:21;10.83;;;6.70;;
6424;SDS011;12193;42.642;23.384;2023-07-02T07:50:50;13.37;;;7.23;;
6424;SDS011;12193;42.642;23.384;2023-07-02T07:53:23;14.50;;;6.87;;
6424;SDS011;12193;42.642;23.384;2023-07-02T07:55:52;11.47;;;7.27;;
6424;SDS011;12193;42.642;23.384;2023-07-02T07:58:22;13.70;;;7.23;;
6424;SDS011;12193;42.642;23.384;2023-07-02T08:00:52;13.70;;;6.83;;
6424;SDS011;12193;42.642;23.384;2023-07-02T08:03:21;13.47;;;7.40;;
6424;SDS011;12193;42.642;23.384;2023-07-02T08:05:50;9.63;;;6.50;;
6424;SDS011;12193;42.642;23.384;2023-07-02T08:08:22;11.00;;;6.27;;
6424;SDS011;12193;42.642;23.384;2023-07-02T08:10:51;15.67;;;6.60;;
6424;SDS011;12193;42.642;23.384;2023-07-02T08:13:21;14.17;;;6.73;;
6424;SDS011;12193;42.642;23.384;2023-07-02T08:15:50;15.80;;;7.40;;
6424;SDS011;12193;42.642;23.384;2023-07-02T08:18:19;9.77;;;6.37;;
6424;SDS011;12193;42.642;23.384;2023-07-02T08:20:49;10.53;;;6.40;;
6424;SDS011;12193;42.642;23.384;2023-07-02T08:23:18;12.43;;;6.77;;
6424;SDS011;12193;42.642;23.384;2023-07-02T08:25:50;10.87;;;6.80;;
6424;SDS011;12193;42.642;23.384;2023-07-02T08:28:19;10.50;;;6.93;;
6424;SDS011;12193;42.642;23.384;2023-07-02T08:30:49;12.07;;;7.17;;
6424;SDS011;12193;42.642;23.384;2023-07-02T08:33:18;11.70;;;6.97;;
6424;SDS011;12193;42.642;23.384;2023-07-02T08:35:47;9.33;;;5.70;;
6424;SDS011;12193;42.642;23.384;2023-07-02T08:38:17;10.97;;;6.37;;
6424;SDS011;12193;42.642;23.384;2023-07-02T08:40:46;10.43;;;5.40;;
6424;SDS011;12193;42.642;23.384;2023-07-02T08:43:20;9.43;;;4.87;;
6424;SDS011;12193;42.642;23.384;2023-07-02T08:45:54;10.80;;;5.20;;
6424;SDS011;12193;42.642;23.384;2023-07-02T08:48:24;10.43;;;5.17;;
6424;SDS011;12193;42.642;23.384;2023-07-02T08:50:55;10.80;;;5.77;;
6424;SDS011;12193;42.642;23.384;2023-07-02T08:53:24;10.03;;;5.83;;
6424;SDS011;12193;42.642;23.384;2023-07-02T08:55:55;8.27;;;5.77;;
6424;SDS011;12193;42.642;23.384;2023-07-02T08:58:27;12.07;;;6.37;;
6424;SDS011;12193;42.642;23.384;2023-07-02T09:01:06;9.33;;;5.70;;
6424;SDS011;12193;42.642;23.384;2023-07-02T09:03:36;11.77;;;6.10;;
6424;SDS011;12193;42.642;23.384;2023-07-02T09:06:06;10.50;;;6.37;;
6424;SDS011;12193;42.642;23.384;2023-07-02T09:08:36;9.93;;;6.63;;
6424;SDS011;12193;42.642;23.384;2023-07-02T09:11:07;9.07;;;5.93;;
6424;SDS011;12193;42.642;23.384;2023-07-02T09:13:49;11.57;;;6.60;;
6424;SDS011;12193;42.642;23.384;2023-07-02T09:16:25;11.90;;;6.50;;
6424;SDS011;12193;42.642;23.384;2023-07-02T09:18:56;11.70;;;6.80;;
6424;SDS011;12193;42.642;23.384;2023-07-02T09:21:26;12.23;;;6.67;;
6424;SDS011;12193;42.642;23.384;2023-07-02T09:23:56;12.27;;;7.07;;
6424;SDS011;12193;42.642;23.384;2023-07-02T09:26:26;12.57;;;6.83;;
6424;SDS011;12193;42.642;23.384;2023-07-02T09:29:02;10.03;;;7.17;;
6424;SDS011;12193;42.642;23.384;2023-07-02T09:31:42;13.50;;;6.50;;
6424;SDS011;12193;42.642;23.384;2023-07-02T09:34:12;12.53;;;7.00;;
6424;SDS011;12193;42.642;23.384;2023-07-02T09:36:42;13.10;;;6.40;;
6424;SDS011;12193;42.642;23.384;2023-07-02T09:39:12;11.60;;;6.57;;
6424;SDS011;12193;42.642;23.384;2023-07-02T09:41:44;13.93;;;7.13;;
6424;SDS011;12193;42.642;23.384;2023-07-02T09:44:16;12.50;;;6.50;;
6424;SDS011;12193;42.642;23.384;2023-07-02T09:46:48;11.23;;;6.43;;
6424;SDS011;12193;42.642;23.384;2023-07-02T09:49:21;11.83;;;6.57;;
6424;SDS011;12193;42.642;23.384;2023-07-02T09:51:51;13.50;;;6.93;;
6424;SDS011;12193;42.642;23.384;2023-07-02T09:54:21;9.63;;;5.93;;
6424;SDS011;12193;42.642;23.384;2023-07-02T09:56:51;10.20;;;6.67;;
6424;SDS011;12193;42.642;23.384;2023-07-02T09:59:22;9.73;;;5.97;;
6424;SDS011;12193;42.642;23.384;2023-07-02T10:01:53;9.23;;;6.17;;
6424;SDS011;12193;42.642;23.384;2023-07-02T10:04:22;10.10;;;5.87;;
6424;SDS011;12193;42.642;23.384;2023-07-02T10:06:53;9.00;;;5.87;;
6424;SDS011;12193;42.642;23.384;2023-07-02T10:09:34;9.47;;;5.50;;
6424;SDS011;12193;42.642;23.384;2023-07-02T10:12:16;9.67;;;6.10;;
6424;SDS011;12193;42.642;23.384;2023-07-02T10:14:50;10.47;;;5.90;;
6424;SDS011;12193;42.642;23.384;2023-07-02T10:17:23;10.07;;;5.93;;
6424;SDS011;12193;42.642;23.384;2023-07-02T10:19:54;10.93;;;6.10;;
6424;SDS011;12193;42.642;23.384;2023-07-02T10:22:25;9.03;;;5.40;;
6424;SDS011;12193;42.642;23.384;2023-07-02T10:24:54;9.53;;;6.17;;
6424;SDS011;12193;42.642;23.384;2023-07-02T10:27:35;6.90;;;5.17;;
6424;SDS011;12193;42.642;23.384;2023-07-02T10:30:08;9.60;;;5.73;;
6424;SDS011;12193;42.642;23.384;2023-07-02T10:32:39;10.17;;;5.70;;
6424;SDS011;12193;42.642;23.384;2023-07-02T10:35:14;9.83;;;5.63;;
6424;SDS011;12193;42.642;23.384;2023-07-02T10:37:44;9.47;;;6.07;;
6424;SDS011;12193;42.642;23.384;2023-07-02T10:40:14;11.10;;;5.83;;
6424;SDS011;12193;42.642;23.384;2023-07-02T10:42:46;10.10;;;5.27;;
6424;SDS011;12193;42.642;23.384;2023-07-02T10:45:19;9.47;;;5.23;;
6424;SDS011;12193;42.642;23.384;2023-07-02T10:47:49;10.10;;;5.40;;
6424;SDS011;12193;42.642;23.384;2023-07-02T10:50:19;8.70;;;5.50;;
6424;SDS011;12193;42.642;23.384;2023-07-02T10:52:49;6.77;;;5.13;;
6424;SDS011;12193;42.642;23.384;2023-07-02T10:55:19;8.97;;;5.73;;
6424;SDS011;12193;42.642;23.384;2023-07-02T10:57:49;10.07;;;5.50;;
6424;SDS011;12193;42.642;23.384;2023-07-02T11:00:33;10.13;;;5.57;;
6424;SDS011;12193;42.642;23.384;2023-07-02T11:03:18;8.90;;;5.70;;
6424;SDS011;12193;42.642;23.384;2023-07-02T11:05:48;7.80;;;5.17;;
6424;SDS011;12193;42.642;23.384;2023-07-02T11:08:18;8.20;;;4.90;;
6424;SDS011;12193;42.642;23.384;2023-07-02T11:10:50;7.37;;;4.87;;
6424;SDS011;12193;42.642;23.384;2023-07-02T11:13:20;8.30;;;5.17;;
6424;SDS011;12193;42.642;23.384;2023-07-02T11:15:51;7.10;;;4.90;;
6424;SDS011;12193;42.642;23.384;2023-07-02T11:18:21;11.80;;;5.57;;
6424;SDS011;12193;42.642;23.384;2023-07-02T11:20:50;8.50;;;5.25;;
6424;SDS011;12193;42.642;23.384;2023-07-02T11:23:20;9.70;;;5.47;;
6424;SDS011;12193;42.642;23.384;2023-07-02T11:25:56;8.50;;;5.50;;
6424;SDS011;12193;42.642;23.384;2023-07-02T11:28:27;7.10;;;5.40;;
6424;SDS011;12193;42.642;23.384;2023-07-02T11:31:00;8.05;;;5.30;;
6424;SDS011;12193;42.642;23.384;2023-07-02T11:33:35;8.35;;;5.63;;
6424;SDS011;12193;42.642;23.384;2023-07-02T11:36:05;9.02;;;5.47;;
6424;SDS011;12193;42.642;23.384;2023-07-02T11:38:35;10.53;;;5.80;;
6424;SDS011;12193;42.642;23.384;2023-07-02T11:41:05;9.37;;;6.20;;
6424;SDS011;12193;42.642;23.384;2023-07-02T11:43:35;10.23;;;5.83;;
6424;SDS011;12193;42.642;23.384;2023-07-02T11:46:07;9.40;;;5.77;;
6424;SDS011;12193;42.642;23.384;2023-07-02T11:48:37;10.30;;;6.37;;
6424;SDS011;12193;42.642;23.384;2023-07-02T11:51:06;9.53;;;6.23;;
6424;SDS011;12193;42.642;23.384;2023-07-02T11:53:35;10.97;;;6.47;;
6424;SDS011;12193;42.642;23.384;2023-07-02T11:56:05;11.13;;;5.83;;
6424;SDS011;12193;42.642;23.384;2023-07-02T11:58:35;10.87;;;6.47;;
6424;SDS011;12193;42.642;23.384;2023-07-02T12:01:07;11.77;;;6.90;;
6424;SDS011;12193;42.642;23.384;2023-07-02T12:03:37;9.93;;;5.43;;
6424;SDS011;12193;42.642;23.384;2023-07-02T12:06:06;12.33;;;6.00;;
6424;SDS011;12193;42.642;23.384;2023-07-02T12:08:35;7.33;;;5.00;;
6424;SDS011;12193;42.642;23.384;2023-07-02T12:11:05;10.50;;;6.17;;
6424;SDS011;12193;42.642;23.384;2023-07-02T12:13:35;10.07;;;6.37;;
6424;SDS011;12193;42.642;23.384;2023-07-02T12:16:07;10.60;;;5.87;;
6424;SDS011;12193;42.642;23.384;2023-07-02T12:18:36;10.93;;;4.97;;
6424;SDS011;12193;42.642;23.384;2023-07-02T12:21:06;8.60;;;4.80;;
6424;SDS011;12193;42.642;23.384;2023-07-02T12:23:35;9.67;;;6.07;;
6424;SDS011;12193;42.642;23.384;2023-07-02T12:26:04;7.27;;;4.60;;
6424;SDS011;12193;42.642;23.384;2023-07-02T12:28:34;8.30;;;5.20;;
6424;SDS011;12193;42.642;23.384;2023-07-02T12:31:03;9.17;;;4.70;;
6424;SDS011;12193;42.642;23.384;2023-07-02T12:33:35;10.40;;;5.07;;
6424;SDS011;12193;42.642;23.384;2023-07-02T12:36:04;5.77;;;3.93;;
6424;SDS011;12193;42.642;23.384;2023-07-02T12:38:33;6.80;;;4.17;;
6424;SDS011;12193;42.642;23.384;2023-07-02T12:41:03;7.60;;;4.87;;
6424;SDS011;12193;42.642;23.384;2023-07-02T12:43:32;6.93;;;4.40;;
6424;SDS011;12193;42.642;23.384;2023-07-02T12:46:01;7.27;;;4.50;;
6424;SDS011;12193;42.642;23.384;2023-07-02T12:48:31;10.17;;;4.77;;
6424;SDS011;12193;42.642;23.384;2023-07-02T12:51:03;6.50;;;4.57;;
6424;SDS011;12193;42.642;23.384;2023-07-02T12:53:32;7.67;;;4.60;;
6424;SDS011;12193;42.642;23.384;2023-07-02T12:56:01;7.10;;;4.80;;
6424;SDS011;12193;42.642;23.384;2023-07-02T12:58:31;6.97;;;4.77;;
6424;SDS011;12193;42.642;23.384;2023-07-02T13:01:00;9.10;;;4.70;;
6424;SDS011;12193;42.642;23.384;2023-07-02T13:03:29;8.90;;;5.30;;
6424;SDS011;12193;42.642;23.384;2023-07-02T13:05:59;9.67;;;5.53;;
6424;SDS011;12193;42.642;23.384;2023-07-02T13:08:31;8.87;;;5.00;;
6424;SDS011;12193;42.642;23.384;2023-07-02T13:11:00;8.13;;;5.00;;
6424;SDS011;12193;42.642;23.384;2023-07-02T13:13:30;8.63;;;4.90;;
6424;SDS011;12193;42.642;23.384;2023-07-02T13:15:59;7.90;;;5.10;;
6424;SDS011;12193;42.642;23.384;2023-07-02T13:18:28;8.53;;;5.43;;
6424;SDS011;12193;42.642;23.384;2023-07-02T13:20:57;7.20;;;4.77;;
6424;SDS011;12193;42.642;23.384;2023-07-02T13:23:27;7.37;;;4.90;;
6424;SDS011;12193;42.642;23.384;2023-07-02T13:25:59;7.43;;;4.90;;
6424;SDS011;12193;42.642;23.384;2023-07-02T13:28:28;7.80;;;5.23;;
6424;SDS011;12193;42.642;23.384;2023-07-02T13:30:57;9.10;;;5.37;;
6424;SDS011;12193;42.642;23.384;2023-07-02T13:33:26;7.60;;;4.97;;
6424;SDS011;12193;42.642;23.384;2023-07-02T13:35:57;8.73;;;5.27;;
6424;SDS011;12193;42.642;23.384;2023-07-02T13:38:26;9.63;;;5.20;;
6424;SDS011;12193;42.642;23.384;2023-07-02T13:40:59;8.97;;;5.83;;
6424;SDS011;12193;42.642;23.384;2023-07-02T13:43:29;8.83;;;5.70;;
6424;SDS011;12193;42.642;23.384;2023-07-02T13:45:58;7.90;;;5.27;;
6424;SDS011;12193;42.642;23.384;2023-07-02T13:48:27;9.23;;;5.37;;
6424;SDS011;12193;42.642;23.384;2023-07-02T13:50:56;13.73;;;6.20;;
6424;SDS011;12193;42.642;23.384;2023-07-02T13:53:25;10.60;;;6.50;;
6424;SDS011;12193;42.642;23.384;2023-07-02T13:55:55;10.90;;;5.67;;
6424;SDS011;12193;42.642;23.384;2023-07-02T14:01:13;12.37;;;6.93;;
6424;SDS011;12193;42.642;23.384;2023-07-02T14:03:43;11.80;;;6.90;;
6424;SDS011;12193;42.642;23.384;2023-07-02T14:06:12;10.53;;;5.27;;
6424;SDS011;12193;42.642;23.384;2023-07-02T14:08:41;9.57;;;6.07;;
6424;SDS011;12193;42.642;23.384;2023-07-02T14:11:11;9.93;;;6.60;;
6424;SDS011;12193;42.642;23.384;2023-07-02T14:13:40;10.53;;;5.90;;
6424;SDS011;12193;42.642;23.384;2023-07-02T14:16:09;9.60;;;6.13;;
6424;SDS011;12193;42.642;23.384;2023-07-02T14:18:41;10.73;;;6.20;;
6424;SDS011;12193;42.642;23.384;2023-07-02T14:21:10;12.53;;;6.10;;
6424;SDS011;12193;42.642;23.384;2023-07-02T14:23:40;12.53;;;6.67;;
6424;SDS011;12193;42.642;23.384;2023-07-02T14:26:09;8.20;;;5.27;;
6424;SDS011;12193;42.642;23.384;2023-07-02T14:28:39;11.73;;;6.53;;
6424;SDS011;12193;42.642;23.384;2023-07-02T14:31:09;11.63;;;6.50;;
6424;SDS011;12193;42.642;23.384;2023-07-02T14:33:38;9.23;;;5.80;;
6424;SDS011;12193;42.642;23.384;2023-07-02T14:36:10;9.87;;;6.00;;
6424;SDS011;12193;42.642;23.384;2023-07-02T14:38:39;10.53;;;6.80;;
6424;SDS011;12193;42.642;23.384;2023-07-02T14:41:09;11.77;;;7.10;;
6424;SDS011;12193;42.642;23.384;2023-07-02T14:43:38;11.57;;;7.97;;
6424;SDS011;12193;42.642;23.384;2023-07-02T14:46:08;12.17;;;6.83;;
6424;SDS011;12193;42.642;23.384;2023-07-02T14:48:37;10.30;;;6.23;;
6424;SDS011;12193;42.642;23.384;2023-07-02T14:51:09;13.27;;;6.23;;
6424;SDS011;12193;42.642;23.384;2023-07-02T14:53:38;10.50;;;5.77;;
6424;SDS011;12193;42.642;23.384;2023-07-02T14:56:08;12.00;;;6.73;;
6424;SDS011;12193;42.642;23.384;2023-07-02T14:58:37;9.87;;;6.60;;
6424;SDS011;12193;42.642;23.384;2023-07-02T15:01:06;16.77;;;9.10;;
6424;SDS011;12193;42.642;23.384;2023-07-02T15:03:36;12.33;;;7.03;;
6424;SDS011;12193;42.642;23.384;2023-07-02T15:06:05;12.90;;;7.20;;
6424;SDS011;12193;42.642;23.384;2023-07-02T15:08:40;12.87;;;7.90;;
6424;SDS011;12193;42.642;23.384;2023-07-02T15:11:10;15.20;;;7.40;;
6424;SDS011;12193;42.642;23.384;2023-07-02T15:13:41;12.20;;;8.03;;
6424;SDS011;12193;42.642;23.384;2023-07-02T15:16:11;12.00;;;7.10;;
6424;SDS011;12193;42.642;23.384;2023-07-02T15:18:41;12.67;;;7.33;;
6424;SDS011;12193;42.642;23.384;2023-07-02T15:21:12;12.07;;;6.93;;
6424;SDS011;12193;42.642;23.384;2023-07-02T15:23:42;12.70;;;6.60;;
6424;SDS011;12193;42.642;23.384;2023-07-02T15:26:12;9.40;;;6.33;;
6424;SDS011;12193;42.642;23.384;2023-07-02T15:28:41;11.00;;;6.33;;
6424;SDS011;12193;42.642;23.384;2023-07-02T15:31:11;12.53;;;6.60;;
6424;SDS011;12193;42.642;23.384;2023-07-02T15:33:40;9.27;;;5.77;;
6424;SDS011;12193;42.642;23.384;2023-07-02T15:36:14;11.27;;;6.57;;
6424;SDS011;12193;42.642;23.384;2023-07-02T15:38:43;11.00;;;6.27;;
6424;SDS011;12193;42.642;23.384;2023-07-02T15:41:13;11.83;;;7.13;;
6424;SDS011;12193;42.642;23.384;2023-07-02T15:43:45;14.03;;;8.17;;
6424;SDS011;12193;42.642;23.384;2023-07-02T15:46:17;11.70;;;6.40;;
6424;SDS011;12193;42.642;23.384;2023-07-02T15:48:47;10.03;;;6.87;;
6424;SDS011;12193;42.642;23.384;2023-07-02T15:51:19;12.10;;;6.87;;
6424;SDS011;12193;42.642;23.384;2023-07-02T15:53:49;9.40;;;6.30;;
6424;SDS011;12193;42.642;23.384;2023-07-02T15:56:19;9.63;;;6.33;;
6424;SDS011;12193;42.642;23.384;2023-07-02T15:58:48;10.23;;;6.53;;
6424;SDS011;12193;42.642;23.384;2023-07-02T16:01:18;12.20;;;6.53;;
6424;SDS011;12193;42.642;23.384;2023-07-02T16:03:48;12.27;;;7.10;;
6424;SDS011;12193;42.642;23.384;2023-07-02T16:06:20;9.33;;;6.80;;
6424;SDS011;12193;42.642;23.384;2023-07-02T16:08:50;11.70;;;6.50;;
6424;SDS011;12193;42.642;23.384;2023-07-02T16:11:19;14.67;;;7.40;;
6424;SDS011;12193;42.642;23.384;2023-07-02T16:13:49;13.43;;;8.60;;
6424;SDS011;12193;42.642;23.384;2023-07-02T16:16:19;14.07;;;7.67;;
6424;SDS011;12193;42.642;23.384;2023-07-02T16:18:49;12.17;;;8.00;;
6424;SDS011;12193;42.642;23.384;2023-07-02T16:21:20;15.83;;;8.13;;
6424;SDS011;12193;42.642;23.384;2023-07-02T16:23:50;12.70;;;7.17;;
6424;SDS011;12193;42.642;23.384;2023-07-02T16:26:19;11.87;;;7.03;;
6424;SDS011;12193;42.642;23.384;2023-07-02T16:28:48;12.50;;;7.37;;
6424;SDS011;12193;42.642;23.384;2023-07-02T16:31:18;11.77;;;7.50;;
6424;SDS011;12193;42.642;23.384;2023-07-02T16:33:47;10.23;;;6.40;;
6424;SDS011;12193;42.642;23.384;2023-07-02T16:36:17;10.03;;;6.80;;
6424;SDS011;12193;42.642;23.384;2023-07-02T16:38:49;10.67;;;6.83;;
6424;SDS011;12193;42.642;23.384;2023-07-02T16:41:19;11.73;;;6.70;;
6424;SDS011;12193;42.642;23.384;2023-07-02T16:43:49;11.93;;;6.87;;
6424;SDS011;12193;42.642;23.384;2023-07-02T16:46:18;9.07;;;6.47;;
6424;SDS011;12193;42.642;23.384;2023-07-02T16:48:48;9.90;;;6.73;;
6424;SDS011;12193;42.642;23.384;2023-07-02T16:51:17;11.27;;;7.23;;
6424;SDS011;12193;42.642;23.384;2023-07-02T16:53:49;12.90;;;7.53;;
6424;SDS011;12193;42.642;23.384;2023-07-02T16:56:19;10.77;;;7.17;;
6424;SDS011;12193;42.642;23.384;2023-07-02T16:58:48;12.80;;;8.50;;
6424;SDS011;12193;42.642;23.384;2023-07-02T17:01:17;13.43;;;7.03;;
6424;SDS011;12193;42.642;23.384;2023-07-02T17:03:47;12.23;;;7.23;;
6424;SDS011;12193;42.642;23.384;2023-07-02T17:06:16;11.20;;;7.07;;
6424;SDS011;12193;42.642;23.384;2023-07-02T17:08:45;13.17;;;7.63;;
6424;SDS011;12193;42.642;23.384;2023-07-02T17:11:17;13.50;;;7.47;;
6424;SDS011;12193;42.642;23.384;2023-07-02T17:13:47;14.47;;;8.80;;
6424;SDS011;12193;42.642;23.384;2023-07-02T17:16:16;12.33;;;7.57;;
6424;SDS011;12193;42.642;23.384;2023-07-02T17:18:45;12.60;;;7.80;;
6424;SDS011;12193;42.642;23.384;2023-07-02T17:21:14;11.60;;;7.27;;
6424;SDS011;12193;42.642;23.384;2023-07-02T17:23:44;11.47;;;7.77;;
6424;SDS011;12193;42.642;23.384;2023-07-02T17:26:13;13.13;;;6.90;;
6424;SDS011;12193;42.642;23.384;2023-07-02T17:28:45;12.70;;;7.53;;
6424;SDS011;12193;42.642;23.384;2023-07-02T17:31:15;12.43;;;7.67;;
6424;SDS011;12193;42.642;23.384;2023-07-02T17:33:44;13.47;;;7.77;;
6424;SDS011;12193;42.642;23.384;2023-07-02T17:36:15;14.53;;;8.13;;
6424;SDS011;12193;42.642;23.384;2023-07-02T17:38:45;11.83;;;7.47;;
6424;SDS011;12193;42.642;23.384;2023-07-02T17:41:14;11.03;;;6.93;;
6424;SDS011;12193;42.642;23.384;2023-07-02T17:43:46;9.33;;;6.37;;
6424;SDS011;12193;42.642;23.384;2023-07-02T17:46:16;11.17;;;7.17;;
6424;SDS011;12193;42.642;23.384;2023-07-02T17:48:45;12.53;;;7.50;;
6424;SDS011;12193;42.642;23.384;2023-07-02T17:51:14;12.80;;;7.93;;
6424;SDS011;12193;42.642;23.384;2023-07-02T17:53:44;9.10;;;6.17;;
6424;SDS011;12193;42.642;23.384;2023-07-02T17:56:13;11.90;;;7.50;;
6424;SDS011;12193;42.642;23.384;2023-07-02T17:58:42;11.47;;;7.20;;